sensor_id;sensor_type;location;lat;lon;timestamp;P1;durP1;ratioP1;P2;durP2;ratioP2
17369;SDS011;8802;52.402;4.920;2023-06-24T00:02:03;5.47;;;4.97;;
17369;SDS011;8802;52.402;4.920;2023-06-24T00:04:31;6.00;;;5.50;;
17369;SDS011;8802;52.402;4.920;2023-06-24T00:06:58;5.00;;;4.60;;
17369;SDS011;8802;52.402;4.920;2023-06-24T00:09:25;5.15;;;4.75;;
17369;SDS011;8802;52.402;4.920;2023-06-24T00:11:53;5.28;;;4.78;;
17369;SDS011;8802;52.402;4.920;2023-06-24T00:14:20;5.38;;;4.88;;
17369;SDS011;8802;52.402;4.920;2023-06-24T00:16:50;5.90;;;4.88;;
17369;SDS011;8802;52.402;4.920;2023-06-24T00:19:18;5.43;;;4.93;;
17369;SDS011;8802;52.402;4.920;2023-06-24T00:21:45;5.18;;;4.78;;
17369;SDS011;8802;52.402;4.920;2023-06-24T00:24:12;5.15;;;4.75;;
17369;SDS011;8802;52.402;4.920;2023-06-24T00:26:39;4.97;;;4.55;;
17369;SDS011;8802;52.402;4.920;2023-06-24T00:29:06;6.28;;;5.45;;
17369;SDS011;8802;52.402;4.920;2023-06-24T00:31:33;6.05;;;5.53;;
17369;SDS011;8802;52.402;4.920;2023-06-24T00:34:01;6.18;;;5.57;;
17369;SDS011;8802;52.402;4.920;2023-06-24T00:36:29;6.22;;;5.72;;
17369;SDS011;8802;52.402;4.920;2023-06-24T00:38:57;6.60;;;6.00;;
17369;SDS011;8802;52.402;4.920;2023-06-24T00:41:26;6.75;;;6.10;;
17369;SDS011;8802;52.402;4.920;2023-06-24T00:43:54;6.35;;;5.75;;
17369;SDS011;8802;52.402;4.920;2023-06-24T00:46:22;6.32;;;5.75;;
17369;SDS011;8802;52.402;4.920;2023-06-24T00:48:50;6.95;;;6.25;;
17369;SDS011;8802;52.402;4.920;2023-06-24T00:51:18;6.30;;;5.70;;
17369;SDS011;8802;52.402;4.920;2023-06-24T00:53:46;6.63;;;6.03;;
17369;SDS011;8802;52.402;4.920;2023-06-24T00:56:15;5.47;;;4.97;;
17369;SDS011;8802;52.402;4.920;2023-06-24T00:58:44;5.90;;;5.30;;
17369;SDS011;8802;52.402;4.920;2023-06-24T01:01:12;6.47;;;5.88;;
17369;SDS011;8802;52.402;4.920;2023-06-24T01:03:39;8.27;;;6.80;;
17369;SDS011;8802;52.402;4.920;2023-06-24T01:06:07;6.57;;;5.88;;
17369;SDS011;8802;52.402;4.920;2023-06-24T01:08:36;6.25;;;5.68;;
17369;SDS011;8802;52.402;4.920;2023-06-24T01:11:03;7.10;;;6.00;;
17369;SDS011;8802;52.402;4.920;2023-06-24T01:13:30;7.35;;;6.55;;
17369;SDS011;8802;52.402;4.920;2023-06-24T01:15:57;6.90;;;6.22;;
17369;SDS011;8802;52.402;4.920;2023-06-24T01:18:31;6.90;;;6.13;;
17369;SDS011;8802;52.402;4.920;2023-06-24T01:21:03;8.23;;;6.90;;
17369;SDS011;8802;52.402;4.920;2023-06-24T01:26:46;5.93;;;5.43;;
17369;SDS011;8802;52.402;4.920;2023-06-24T01:29:41;6.30;;;5.63;;
17369;SDS011;8802;52.402;4.920;2023-06-24T01:32:21;6.88;;;5.75;;
17369;SDS011;8802;52.402;4.920;2023-06-24T01:34:55;6.55;;;5.97;;
17369;SDS011;8802;52.402;4.920;2023-06-24T01:37:25;6.60;;;6.00;;
17369;SDS011;8802;52.402;4.920;2023-06-24T01:39:56;7.00;;;6.32;;
17369;SDS011;8802;52.402;4.920;2023-06-24T01:42:33;6.00;;;5.43;;
17369;SDS011;8802;52.402;4.920;2023-06-24T01:45:03;6.10;;;5.55;;
17369;SDS011;8802;52.402;4.920;2023-06-24T01:47:34;6.47;;;5.90;;
17369;SDS011;8802;52.402;4.920;2023-06-24T01:50:01;7.25;;;5.53;;
17369;SDS011;8802;52.402;4.920;2023-06-24T01:52:29;7.30;;;6.32;;
17369;SDS011;8802;52.402;4.920;2023-06-24T01:54:58;5.57;;;5.07;;
17369;SDS011;8802;52.402;4.920;2023-06-24T01:57:26;8.73;;;6.57;;
17369;SDS011;8802;52.402;4.920;2023-06-24T01:59:54;6.07;;;5.47;;
17369;SDS011;8802;52.402;4.920;2023-06-24T02:02:22;5.85;;;5.28;;
17369;SDS011;8802;52.402;4.920;2023-06-24T02:04:52;5.82;;;5.22;;
17369;SDS011;8802;52.402;4.920;2023-06-24T02:07:20;6.82;;;6.22;;
17369;SDS011;8802;52.402;4.920;2023-06-24T02:09:49;6.15;;;5.65;;
17369;SDS011;8802;52.402;4.920;2023-06-24T02:12:18;7.05;;;6.40;;
17369;SDS011;8802;52.402;4.920;2023-06-24T02:14:46;6.10;;;5.60;;
17369;SDS011;8802;52.402;4.920;2023-06-24T02:17:14;5.65;;;5.03;;
17369;SDS011;8802;52.402;4.920;2023-06-24T02:19:42;5.30;;;4.90;;
17369;SDS011;8802;52.402;4.920;2023-06-24T02:22:11;5.65;;;5.15;;
17369;SDS011;8802;52.402;4.920;2023-06-24T02:24:39;5.47;;;4.90;;
17369;SDS011;8802;52.402;4.920;2023-06-24T02:27:07;6.00;;;5.50;;
17369;SDS011;8802;52.402;4.920;2023-06-24T02:29:36;5.63;;;5.07;;
17369;SDS011;8802;52.402;4.920;2023-06-24T02:32:05;5.70;;;5.13;;
17369;SDS011;8802;52.402;4.920;2023-06-24T02:34:33;5.07;;;4.57;;
17369;SDS011;8802;52.402;4.920;2023-06-24T02:37:00;5.28;;;4.50;;
17369;SDS011;8802;52.402;4.920;2023-06-24T02:39:29;5.70;;;5.05;;
17369;SDS011;8802;52.402;4.920;2023-06-24T02:41:57;5.68;;;4.93;;
17369;SDS011;8802;52.402;4.920;2023-06-24T02:44:23;5.80;;;5.30;;
17369;SDS011;8802;52.402;4.920;2023-06-24T02:46:50;5.28;;;4.78;;
17369;SDS011;8802;52.402;4.920;2023-06-24T02:49:19;4.85;;;4.40;;
17369;SDS011;8802;52.402;4.920;2023-06-24T02:51:47;4.63;;;4.22;;
17369;SDS011;8802;52.402;4.920;2023-06-24T02:54:15;4.57;;;3.80;;
17369;SDS011;8802;52.402;4.920;2023-06-24T02:56:43;4.95;;;4.30;;
17369;SDS011;8802;52.402;4.920;2023-06-24T02:59:10;6.97;;;4.30;;
17369;SDS011;8802;52.402;4.920;2023-06-24T03:01:37;4.97;;;4.45;;
17369;SDS011;8802;52.402;4.920;2023-06-24T03:04:10;4.93;;;3.55;;
17369;SDS011;8802;52.402;4.920;2023-06-24T03:06:37;3.90;;;3.55;;
17369;SDS011;8802;52.402;4.920;2023-06-24T03:09:04;5.03;;;3.38;;
17369;SDS011;8802;52.402;4.920;2023-06-24T03:11:39;3.58;;;2.95;;
17369;SDS011;8802;52.402;4.920;2023-06-24T03:14:08;3.90;;;3.50;;
17369;SDS011;8802;52.402;4.920;2023-06-24T03:16:35;4.90;;;2.97;;
17369;SDS011;8802;52.402;4.920;2023-06-24T03:19:03;4.03;;;3.17;;
17369;SDS011;8802;52.402;4.920;2023-06-24T03:21:30;3.47;;;3.17;;
17369;SDS011;8802;52.402;4.920;2023-06-24T03:23:57;4.32;;;3.17;;
17369;SDS011;8802;52.402;4.920;2023-06-24T03:26:25;3.53;;;3.22;;
17369;SDS011;8802;52.402;4.920;2023-06-24T03:28:57;3.30;;;3.00;;
17369;SDS011;8802;52.402;4.920;2023-06-24T03:31:25;4.38;;;3.83;;
17369;SDS011;8802;52.402;4.920;2023-06-24T03:33:52;3.50;;;3.20;;
17369;SDS011;8802;52.402;4.920;2023-06-24T03:36:19;3.00;;;2.70;;
17369;SDS011;8802;52.402;4.920;2023-06-24T03:38:46;3.97;;;2.72;;
17369;SDS011;8802;52.402;4.920;2023-06-24T03:41:13;3.33;;;2.63;;
17369;SDS011;8802;52.402;4.920;2023-06-24T03:43:40;3.97;;;3.03;;
17369;SDS011;8802;52.402;4.920;2023-06-24T03:46:08;3.53;;;3.22;;
17369;SDS011;8802;52.402;4.920;2023-06-24T03:48:36;3.53;;;3.22;;
17369;SDS011;8802;52.402;4.920;2023-06-24T03:51:04;4.13;;;3.10;;
17369;SDS011;8802;52.402;4.920;2023-06-24T03:53:31;2.83;;;2.60;;
17369;SDS011;8802;52.402;4.920;2023-06-24T03:55:58;4.30;;;2.88;;
17369;SDS011;8802;52.402;4.920;2023-06-24T03:58:26;3.25;;;2.90;;
17369;SDS011;8802;52.402;4.920;2023-06-24T04:00:53;3.45;;;2.60;;
17369;SDS011;8802;52.402;4.920;2023-06-24T04:03:22;2.95;;;2.70;;
17369;SDS011;8802;52.402;4.920;2023-06-24T04:05:52;3.22;;;2.88;;
17369;SDS011;8802;52.402;4.920;2023-06-24T04:08:19;3.10;;;2.72;;
17369;SDS011;8802;52.402;4.920;2023-06-24T04:10:46;3.15;;;2.75;;
17369;SDS011;8802;52.402;4.920;2023-06-24T04:13:13;4.10;;;3.30;;
17369;SDS011;8802;52.402;4.920;2023-06-24T04:15:40;4.50;;;3.38;;
17369;SDS011;8802;52.402;4.920;2023-06-24T04:18:07;3.28;;;2.90;;
17369;SDS011;8802;52.402;4.920;2023-06-24T04:20:34;4.65;;;3.28;;
17369;SDS011;8802;52.402;4.920;2023-06-24T04:23:03;4.45;;;2.78;;
17369;SDS011;8802;52.402;4.920;2023-06-24T04:25:30;3.25;;;2.95;;
17369;SDS011;8802;52.402;4.920;2023-06-24T04:27:57;3.90;;;2.67;;
17369;SDS011;8802;52.402;4.920;2023-06-24T04:30:24;4.38;;;3.20;;
17369;SDS011;8802;52.402;4.920;2023-06-24T04:32:51;4.07;;;3.10;;
17369;SDS011;8802;52.402;4.920;2023-06-24T04:35:17;4.22;;;3.53;;
17369;SDS011;8802;52.402;4.920;2023-06-24T04:37:44;3.40;;;3.10;;
17369;SDS011;8802;52.402;4.920;2023-06-24T04:40:12;5.00;;;3.58;;
17369;SDS011;8802;52.402;4.920;2023-06-24T04:42:39;5.20;;;3.05;;
17369;SDS011;8802;52.402;4.920;2023-06-24T04:45:07;3.90;;;3.05;;
17369;SDS011;8802;52.402;4.920;2023-06-24T04:47:34;4.75;;;3.28;;
17369;SDS011;8802;52.402;4.920;2023-06-24T04:50:01;4.35;;;3.45;;
17369;SDS011;8802;52.402;4.920;2023-06-24T04:52:28;3.78;;;3.25;;
17369;SDS011;8802;52.402;4.920;2023-06-24T04:54:55;4.65;;;3.47;;
17369;SDS011;8802;52.402;4.920;2023-06-24T04:57:27;3.75;;;2.95;;
17369;SDS011;8802;52.402;4.920;2023-06-24T04:59:56;3.50;;;2.90;;
17369;SDS011;8802;52.402;4.920;2023-06-24T05:02:23;3.78;;;3.05;;
17369;SDS011;8802;52.402;4.920;2023-06-24T05:04:51;4.38;;;3.00;;
17369;SDS011;8802;52.402;4.920;2023-06-24T05:07:18;4.63;;;3.40;;
17369;SDS011;8802;52.402;4.920;2023-06-24T05:09:45;3.58;;;3.03;;
17369;SDS011;8802;52.402;4.920;2023-06-24T05:12:13;4.13;;;3.50;;
17369;SDS011;8802;52.402;4.920;2023-06-24T05:14:42;4.43;;;3.53;;
17369;SDS011;8802;52.402;4.920;2023-06-24T05:17:08;4.20;;;3.33;;
17369;SDS011;8802;52.402;4.920;2023-06-24T05:19:35;3.42;;;2.90;;
17369;SDS011;8802;52.402;4.920;2023-06-24T05:22:02;4.75;;;3.92;;
17369;SDS011;8802;52.402;4.920;2023-06-24T05:24:29;6.40;;;3.60;;
17369;SDS011;8802;52.402;4.920;2023-06-24T05:26:56;4.20;;;3.42;;
17369;SDS011;8802;52.402;4.920;2023-06-24T05:29:29;3.78;;;3.22;;
17369;SDS011;8802;52.402;4.920;2023-06-24T05:31:58;4.10;;;3.70;;
17369;SDS011;8802;52.402;4.920;2023-06-24T05:34:26;4.10;;;3.58;;
17369;SDS011;8802;52.402;4.920;2023-06-24T05:36:53;4.63;;;4.18;;
17369;SDS011;8802;52.402;4.920;2023-06-24T05:39:20;5.10;;;3.78;;
17369;SDS011;8802;52.402;4.920;2023-06-24T05:41:47;4.78;;;3.88;;
17369;SDS011;8802;52.402;4.920;2023-06-24T05:44:14;3.38;;;3.08;;
17369;SDS011;8802;52.402;4.920;2023-06-24T05:46:43;4.07;;;3.53;;
17369;SDS011;8802;52.402;4.920;2023-06-24T05:49:11;4.07;;;3.47;;
17369;SDS011;8802;52.402;4.920;2023-06-24T05:51:38;4.85;;;3.50;;
17369;SDS011;8802;52.402;4.920;2023-06-24T05:54:05;4.75;;;4.07;;
17369;SDS011;8802;52.402;4.920;2023-06-24T05:56:32;4.55;;;3.78;;
17369;SDS011;8802;52.402;4.920;2023-06-24T05:59:01;4.15;;;3.67;;
17369;SDS011;8802;52.402;4.920;2023-06-24T06:01:28;4.53;;;4.13;;
17369;SDS011;8802;52.402;4.920;2023-06-24T06:03:55;5.68;;;4.00;;
17369;SDS011;8802;52.402;4.920;2023-06-24T06:06:23;3.65;;;3.25;;
17369;SDS011;8802;52.402;4.920;2023-06-24T06:08:50;5.05;;;3.72;;
17369;SDS011;8802;52.402;4.920;2023-06-24T06:11:17;4.35;;;3.88;;
17369;SDS011;8802;52.402;4.920;2023-06-24T06:13:44;4.35;;;3.95;;
17369;SDS011;8802;52.402;4.920;2023-06-24T06:16:10;4.85;;;4.20;;
17369;SDS011;8802;52.402;4.920;2023-06-24T06:18:37;5.35;;;4.72;;
17369;SDS011;8802;52.402;4.920;2023-06-24T06:21:04;5.35;;;4.85;;
17369;SDS011;8802;52.402;4.920;2023-06-24T06:23:32;4.93;;;4.32;;
17369;SDS011;8802;52.402;4.920;2023-06-24T06:25:59;5.53;;;4.22;;
17369;SDS011;8802;52.402;4.920;2023-06-24T06:28:26;5.85;;;4.38;;
17369;SDS011;8802;52.402;4.920;2023-06-24T06:30:53;6.72;;;4.70;;
17369;SDS011;8802;52.402;4.920;2023-06-24T06:33:22;5.28;;;4.40;;
17369;SDS011;8802;52.402;4.920;2023-06-24T06:35:49;4.32;;;3.92;;
17369;SDS011;8802;52.402;4.920;2023-06-24T06:38:16;7.55;;;5.00;;
17369;SDS011;8802;52.402;4.920;2023-06-24T06:40:44;6.28;;;5.00;;
17369;SDS011;8802;52.402;4.920;2023-06-24T06:43:11;6.00;;;4.53;;
17369;SDS011;8802;52.402;4.920;2023-06-24T06:45:38;5.70;;;4.95;;
17369;SDS011;8802;52.402;4.920;2023-06-24T06:48:05;5.43;;;4.78;;
17369;SDS011;8802;52.402;4.920;2023-06-24T06:50:33;6.05;;;4.82;;
17369;SDS011;8802;52.402;4.920;2023-06-24T06:53:00;6.40;;;4.40;;
17369;SDS011;8802;52.402;4.920;2023-06-24T06:55:27;5.03;;;4.07;;
17369;SDS011;8802;52.402;4.920;2023-06-24T06:57:56;5.85;;;4.18;;
17369;SDS011;8802;52.402;4.920;2023-06-24T07:00:22;4.88;;;4.15;;
17369;SDS011;8802;52.402;4.920;2023-06-24T07:02:49;6.25;;;4.93;;
17369;SDS011;8802;52.402;4.920;2023-06-24T07:05:16;4.97;;;4.47;;
17369;SDS011;8802;52.402;4.920;2023-06-24T07:07:43;4.85;;;4.13;;
17369;SDS011;8802;52.402;4.920;2023-06-24T07:10:10;9.45;;;4.82;;
17369;SDS011;8802;52.402;4.920;2023-06-24T07:12:37;5.32;;;4.47;;
17369;SDS011;8802;52.402;4.920;2023-06-24T07:15:06;6.47;;;4.57;;
17369;SDS011;8802;52.402;4.920;2023-06-24T07:17:34;5.35;;;4.68;;
17369;SDS011;8802;52.402;4.920;2023-06-24T07:20:01;5.00;;;4.50;;
17369;SDS011;8802;52.402;4.920;2023-06-24T07:22:28;5.45;;;4.88;;
17369;SDS011;8802;52.402;4.920;2023-06-24T07:24:55;5.50;;;4.47;;
17369;SDS011;8802;52.402;4.920;2023-06-24T07:27:22;6.05;;;4.70;;
17369;SDS011;8802;52.402;4.920;2023-06-24T07:29:49;4.70;;;4.25;;
17369;SDS011;8802;52.402;4.920;2023-06-24T07:32:17;7.07;;;4.40;;
17369;SDS011;8802;52.402;4.920;2023-06-24T07:34:44;5.80;;;4.60;;
17369;SDS011;8802;52.402;4.920;2023-06-24T07:37:11;4.85;;;4.28;;
17369;SDS011;8802;52.402;4.920;2023-06-24T07:39:38;5.30;;;4.78;;
17369;SDS011;8802;52.402;4.920;2023-06-24T07:42:05;5.68;;;5.15;;
17369;SDS011;8802;52.402;4.920;2023-06-24T07:44:33;4.95;;;4.43;;
17369;SDS011;8802;52.402;4.920;2023-06-24T07:47:01;5.10;;;4.65;;
17369;SDS011;8802;52.402;4.920;2023-06-24T07:49:30;5.40;;;4.90;;
17369;SDS011;8802;52.402;4.920;2023-06-24T07:51:57;5.30;;;4.80;;
17369;SDS011;8802;52.402;4.920;2023-06-24T07:54:24;5.13;;;4.63;;
17369;SDS011;8802;52.402;4.920;2023-06-24T07:56:51;5.60;;;4.70;;
17369;SDS011;8802;52.402;4.920;2023-06-24T07:59:18;6.45;;;5.05;;
17369;SDS011;8802;52.402;4.920;2023-06-24T08:01:44;8.15;;;4.65;;
17369;SDS011;8802;52.402;4.920;2023-06-24T08:04:11;7.05;;;5.15;;
17369;SDS011;8802;52.402;4.920;2023-06-24T08:06:40;5.20;;;4.68;;
17369;SDS011;8802;52.402;4.920;2023-06-24T08:09:06;5.07;;;4.43;;
17369;SDS011;8802;52.402;4.920;2023-06-24T08:11:33;5.13;;;4.05;;
17369;SDS011;8802;52.402;4.920;2023-06-24T08:14:00;5.60;;;4.80;;
17369;SDS011;8802;52.402;4.920;2023-06-24T08:16:28;4.63;;;4.18;;
17369;SDS011;8802;52.402;4.920;2023-06-24T08:18:55;5.68;;;4.70;;
17369;SDS011;8802;52.402;4.920;2023-06-24T08:21:22;7.43;;;4.95;;
17369;SDS011;8802;52.402;4.920;2023-06-24T08:23:50;5.15;;;4.07;;
17369;SDS011;8802;52.402;4.920;2023-06-24T08:26:19;5.70;;;4.38;;
17369;SDS011;8802;52.402;4.920;2023-06-24T08:28:46;6.90;;;4.95;;
17369;SDS011;8802;52.402;4.920;2023-06-24T08:31:13;5.85;;;4.60;;
17369;SDS011;8802;52.402;4.920;2023-06-24T08:33:41;6.32;;;4.40;;
17369;SDS011;8802;52.402;4.920;2023-06-24T08:36:09;6.55;;;4.40;;
17369;SDS011;8802;52.402;4.920;2023-06-24T08:38:36;6.20;;;4.50;;
17369;SDS011;8802;52.402;4.920;2023-06-24T08:41:04;7.30;;;5.65;;
17369;SDS011;8802;52.402;4.920;2023-06-24T08:43:32;6.00;;;5.20;;
17369;SDS011;8802;52.402;4.920;2023-06-24T08:45:59;6.95;;;4.32;;
17369;SDS011;8802;52.402;4.920;2023-06-24T08:48:26;8.68;;;4.95;;
17369;SDS011;8802;52.402;4.920;2023-06-24T08:50:56;5.22;;;4.53;;
17369;SDS011;8802;52.402;4.920;2023-06-24T08:53:24;5.28;;;4.78;;
17369;SDS011;8802;52.402;4.920;2023-06-24T08:55:53;6.32;;;5.03;;
17369;SDS011;8802;52.402;4.920;2023-06-24T08:58:23;6.35;;;4.32;;
17369;SDS011;8802;52.402;4.920;2023-06-24T09:00:50;11.05;;;5.10;;
17369;SDS011;8802;52.402;4.920;2023-06-24T09:03:18;4.78;;;4.00;;
17369;SDS011;8802;52.402;4.920;2023-06-24T09:05:45;4.95;;;4.45;;
17369;SDS011;8802;52.402;4.920;2023-06-24T09:08:13;4.50;;;4.10;;
17369;SDS011;8802;52.402;4.920;2023-06-24T09:10:40;5.05;;;4.65;;
17369;SDS011;8802;52.402;4.920;2023-06-24T09:13:07;5.95;;;5.35;;
17369;SDS011;8802;52.402;4.920;2023-06-24T09:15:36;7.50;;;4.72;;
17369;SDS011;8802;52.402;4.920;2023-06-24T09:18:04;5.35;;;4.85;;
17369;SDS011;8802;52.402;4.920;2023-06-24T09:20:32;5.85;;;5.25;;
17369;SDS011;8802;52.402;4.920;2023-06-24T09:23:04;6.38;;;4.93;;
17369;SDS011;8802;52.402;4.920;2023-06-24T09:25:31;7.15;;;4.85;;
17369;SDS011;8802;52.402;4.920;2023-06-24T09:27:58;8.23;;;5.57;;
17369;SDS011;8802;52.402;4.920;2023-06-24T09:30:26;5.88;;;5.38;;
17369;SDS011;8802;52.402;4.920;2023-06-24T09:32:54;5.43;;;4.85;;
17369;SDS011;8802;52.402;4.920;2023-06-24T09:35:22;5.28;;;4.68;;
17369;SDS011;8802;52.402;4.920;2023-06-24T09:37:50;5.75;;;4.78;;
17369;SDS011;8802;52.402;4.920;2023-06-24T09:40:17;4.95;;;4.22;;
17369;SDS011;8802;52.402;4.920;2023-06-24T09:42:48;4.70;;;3.92;;
17369;SDS011;8802;52.402;4.920;2023-06-24T09:45:19;5.25;;;4.75;;
17369;SDS011;8802;52.402;4.920;2023-06-24T09:47:48;5.20;;;4.20;;
17369;SDS011;8802;52.402;4.920;2023-06-24T09:50:16;5.90;;;4.03;;
17369;SDS011;8802;52.402;4.920;2023-06-24T09:52:43;8.90;;;4.78;;
17369;SDS011;8802;52.402;4.920;2023-06-24T09:55:12;6.22;;;5.15;;
17369;SDS011;8802;52.402;4.920;2023-06-24T09:57:40;7.32;;;5.25;;
17369;SDS011;8802;52.402;4.920;2023-06-24T10:00:11;4.70;;;4.25;;
17369;SDS011;8802;52.402;4.920;2023-06-24T10:02:41;4.72;;;4.30;;
17369;SDS011;8802;52.402;4.920;2023-06-24T10:05:08;4.60;;;4.20;;
17369;SDS011;8802;52.402;4.920;2023-06-24T10:07:37;5.40;;;4.55;;
17369;SDS011;8802;52.402;4.920;2023-06-24T10:10:05;4.38;;;3.97;;
17369;SDS011;8802;52.402;4.920;2023-06-24T10:12:33;5.30;;;4.80;;
17369;SDS011;8802;52.402;4.920;2023-06-24T10:15:02;5.15;;;4.75;;
17369;SDS011;8802;52.402;4.920;2023-06-24T10:17:29;6.40;;;5.25;;
17369;SDS011;8802;52.402;4.920;2023-06-24T10:19:57;5.00;;;4.38;;
17369;SDS011;8802;52.402;4.920;2023-06-24T10:22:23;6.18;;;4.75;;
17369;SDS011;8802;52.402;4.920;2023-06-24T10:24:55;7.63;;;5.25;;
17369;SDS011;8802;52.402;4.920;2023-06-24T10:27:26;5.13;;;4.63;;
17369;SDS011;8802;52.402;4.920;2023-06-24T10:29:58;7.28;;;5.78;;
17369;SDS011;8802;52.402;4.920;2023-06-24T10:32:29;6.22;;;4.80;;
17369;SDS011;8802;52.402;4.920;2023-06-24T10:35:06;5.55;;;5.00;;
17369;SDS011;8802;52.402;4.920;2023-06-24T10:37:33;5.78;;;4.97;;
17369;SDS011;8802;52.402;4.920;2023-06-24T10:40:02;7.18;;;5.35;;
17369;SDS011;8802;52.402;4.920;2023-06-24T10:42:31;6.80;;;6.18;;
17369;SDS011;8802;52.402;4.920;2023-06-24T10:45:02;5.25;;;4.85;;
17369;SDS011;8802;52.402;4.920;2023-06-24T10:47:40;7.05;;;5.78;;
17369;SDS011;8802;52.402;4.920;2023-06-24T10:50:10;6.80;;;4.90;;
17369;SDS011;8802;52.402;4.920;2023-06-24T10:52:38;5.95;;;4.85;;
17369;SDS011;8802;52.402;4.920;2023-06-24T10:55:07;7.28;;;5.63;;
17369;SDS011;8802;52.402;4.920;2023-06-24T10:57:34;5.55;;;5.05;;
17369;SDS011;8802;52.402;4.920;2023-06-24T11:00:02;5.82;;;5.32;;
17369;SDS011;8802;52.402;4.920;2023-06-24T11:02:30;9.10;;;4.70;;
17369;SDS011;8802;52.402;4.920;2023-06-24T11:04:57;6.55;;;5.30;;
17369;SDS011;8802;52.402;4.920;2023-06-24T11:07:26;6.63;;;5.25;;
17369;SDS011;8802;52.402;4.920;2023-06-24T11:09:55;6.13;;;4.72;;
17369;SDS011;8802;52.402;4.920;2023-06-24T11:12:24;5.95;;;4.63;;
17369;SDS011;8802;52.402;4.920;2023-06-24T11:14:52;13.35;;;6.10;;
17369;SDS011;8802;52.402;4.920;2023-06-24T11:17:22;7.07;;;4.50;;
17369;SDS011;8802;52.402;4.920;2023-06-24T11:19:49;6.65;;;5.22;;
17369;SDS011;8802;52.402;4.920;2023-06-24T11:22:18;5.68;;;4.68;;
17369;SDS011;8802;52.402;4.920;2023-06-24T11:24:45;4.90;;;4.30;;
17369;SDS011;8802;52.402;4.920;2023-06-24T11:27:12;5.00;;;4.45;;
17369;SDS011;8802;52.402;4.920;2023-06-24T11:29:40;5.10;;;4.28;;
17369;SDS011;8802;52.402;4.920;2023-06-24T11:32:07;7.15;;;4.72;;
17369;SDS011;8802;52.402;4.920;2023-06-24T11:34:34;5.95;;;4.43;;
17369;SDS011;8802;52.402;4.920;2023-06-24T11:37:08;5.07;;;4.45;;
17369;SDS011;8802;52.402;4.920;2023-06-24T11:39:36;4.72;;;4.07;;
17369;SDS011;8802;52.402;4.920;2023-06-24T11:42:05;5.80;;;4.13;;
17369;SDS011;8802;52.402;4.920;2023-06-24T11:44:33;6.40;;;4.90;;
17369;SDS011;8802;52.402;4.920;2023-06-24T11:47:05;4.88;;;4.45;;
17369;SDS011;8802;52.402;4.920;2023-06-24T11:49:43;4.93;;;4.40;;
17369;SDS011;8802;52.402;4.920;2023-06-24T11:52:14;10.13;;;4.45;;
17369;SDS011;8802;52.402;4.920;2023-06-24T11:54:41;7.53;;;4.82;;
17369;SDS011;8802;52.402;4.920;2023-06-24T11:57:08;6.65;;;4.43;;
17369;SDS011;8802;52.402;4.920;2023-06-24T11:59:35;5.38;;;4.43;;
17369;SDS011;8802;52.402;4.920;2023-06-24T12:02:02;5.68;;;4.13;;
17369;SDS011;8802;52.402;4.920;2023-06-24T12:04:31;5.25;;;4.82;;
17369;SDS011;8802;52.402;4.920;2023-06-24T12:06:58;6.63;;;4.95;;
17369;SDS011;8802;52.402;4.920;2023-06-24T12:09:26;6.38;;;5.78;;
17369;SDS011;8802;52.402;4.920;2023-06-24T12:11:53;7.03;;;5.38;;
17369;SDS011;8802;52.402;4.920;2023-06-24T12:14:20;6.63;;;6.03;;
17369;SDS011;8802;52.402;4.920;2023-06-24T12:16:47;4.72;;;4.10;;
17369;SDS011;8802;52.402;4.920;2023-06-24T12:19:15;5.75;;;4.47;;
17369;SDS011;8802;52.402;4.920;2023-06-24T12:21:42;6.57;;;4.70;;
17369;SDS011;8802;52.402;4.920;2023-06-24T12:24:09;4.88;;;3.95;;
17369;SDS011;8802;52.402;4.920;2023-06-24T12:26:36;5.20;;;4.28;;
17369;SDS011;8802;52.402;4.920;2023-06-24T12:29:03;5.10;;;4.50;;
17369;SDS011;8802;52.402;4.920;2023-06-24T12:31:30;5.72;;;4.43;;
17369;SDS011;8802;52.402;4.920;2023-06-24T12:33:57;4.28;;;3.90;;
17369;SDS011;8802;52.402;4.920;2023-06-24T12:36:25;5.22;;;4.72;;
17369;SDS011;8802;52.402;4.920;2023-06-24T12:38:52;7.00;;;4.32;;
17369;SDS011;8802;52.402;4.920;2023-06-24T12:41:19;5.68;;;4.35;;
17369;SDS011;8802;52.402;4.920;2023-06-24T12:43:46;5.88;;;4.28;;
17369;SDS011;8802;52.402;4.920;2023-06-24T12:46:13;4.75;;;3.92;;
17369;SDS011;8802;52.402;4.920;2023-06-24T12:48:40;6.93;;;4.18;;
17369;SDS011;8802;52.402;4.920;2023-06-24T12:51:08;5.80;;;5.05;;
17369;SDS011;8802;52.402;4.920;2023-06-24T12:53:37;6.18;;;4.40;;
17369;SDS011;8802;52.402;4.920;2023-06-24T12:56:04;4.88;;;3.88;;
17369;SDS011;8802;52.402;4.920;2023-06-24T12:58:30;5.43;;;4.88;;
17369;SDS011;8802;52.402;4.920;2023-06-24T13:00:57;5.68;;;4.60;;
17369;SDS011;8802;52.402;4.920;2023-06-24T13:03:24;6.07;;;5.53;;
17369;SDS011;8802;52.402;4.920;2023-06-24T13:05:51;5.30;;;4.32;;
17369;SDS011;8802;52.402;4.920;2023-06-24T13:08:18;4.85;;;4.32;;
17369;SDS011;8802;52.402;4.920;2023-06-24T13:10:46;6.38;;;5.15;;
17369;SDS011;8802;52.402;4.920;2023-06-24T13:13:13;5.80;;;5.22;;
17369;SDS011;8802;52.402;4.920;2023-06-24T13:15:40;6.97;;;4.63;;
17369;SDS011;8802;52.402;4.920;2023-06-24T13:18:07;5.45;;;4.28;;
17369;SDS011;8802;52.402;4.920;2023-06-24T13:20:34;5.47;;;4.70;;
17369;SDS011;8802;52.402;4.920;2023-06-24T13:23:01;5.85;;;4.53;;
17369;SDS011;8802;52.402;4.920;2023-06-24T13:25:28;5.60;;;4.78;;
17369;SDS011;8802;52.402;4.920;2023-06-24T13:27:56;6.88;;;4.15;;
17369;SDS011;8802;52.402;4.920;2023-06-24T13:30:23;5.75;;;5.00;;
17369;SDS011;8802;52.402;4.920;2023-06-24T13:32:50;7.03;;;4.95;;
17369;SDS011;8802;52.402;4.920;2023-06-24T13:35:17;5.65;;;4.45;;
17369;SDS011;8802;52.402;4.920;2023-06-24T13:37:43;5.10;;;4.57;;
17369;SDS011;8802;52.402;4.920;2023-06-24T13:40:11;8.15;;;4.40;;
17369;SDS011;8802;52.402;4.920;2023-06-24T13:42:38;6.00;;;4.32;;
17369;SDS011;8802;52.402;4.920;2023-06-24T13:45:06;6.93;;;4.45;;
17369;SDS011;8802;52.402;4.920;2023-06-24T13:47:34;4.43;;;4.03;;
17369;SDS011;8802;52.402;4.920;2023-06-24T13:50:02;4.57;;;4.18;;
17369;SDS011;8802;52.402;4.920;2023-06-24T13:52:29;4.72;;;4.22;;
17369;SDS011;8802;52.402;4.920;2023-06-24T13:54:56;6.32;;;4.20;;
17369;SDS011;8802;52.402;4.920;2023-06-24T13:57:23;5.65;;;5.15;;
17369;SDS011;8802;52.402;4.920;2023-06-24T13:59:50;5.50;;;5.00;;
17369;SDS011;8802;52.402;4.920;2023-06-24T14:02:18;5.68;;;4.25;;
17369;SDS011;8802;52.402;4.920;2023-06-24T14:04:45;4.53;;;3.97;;
17369;SDS011;8802;52.402;4.920;2023-06-24T14:07:13;4.47;;;4.07;;
17369;SDS011;8802;52.402;4.920;2023-06-24T14:09:40;4.97;;;4.32;;
17369;SDS011;8802;52.402;4.920;2023-06-24T14:12:07;4.43;;;4.00;;
17369;SDS011;8802;52.402;4.920;2023-06-24T14:14:35;5.55;;;4.30;;
17369;SDS011;8802;52.402;4.920;2023-06-24T14:17:04;5.57;;;4.50;;
17369;SDS011;8802;52.402;4.920;2023-06-24T14:19:35;4.78;;;4.38;;
17369;SDS011;8802;52.402;4.920;2023-06-24T14:22:02;5.40;;;3.83;;
17369;SDS011;8802;52.402;4.920;2023-06-24T14:24:29;4.43;;;4.03;;
17369;SDS011;8802;52.402;4.920;2023-06-24T14:26:56;5.20;;;4.80;;
17369;SDS011;8802;52.402;4.920;2023-06-24T14:29:23;7.57;;;4.78;;
17369;SDS011;8802;52.402;4.920;2023-06-24T14:31:50;6.32;;;4.82;;
17369;SDS011;8802;52.402;4.920;2023-06-24T14:34:17;4.75;;;4.35;;
17369;SDS011;8802;52.402;4.920;2023-06-24T14:36:46;4.43;;;4.00;;
17369;SDS011;8802;52.402;4.920;2023-06-24T14:39:13;4.47;;;3.95;;
17369;SDS011;8802;52.402;4.920;2023-06-24T14:41:42;5.10;;;4.60;;
17369;SDS011;8802;52.402;4.920;2023-06-24T14:44:09;4.32;;;3.78;;
17369;SDS011;8802;52.402;4.920;2023-06-24T14:46:36;4.47;;;4.07;;
17369;SDS011;8802;52.402;4.920;2023-06-24T14:49:03;5.10;;;4.50;;
17369;SDS011;8802;52.402;4.920;2023-06-24T14:51:30;4.50;;;4.10;;
17369;SDS011;8802;52.402;4.920;2023-06-24T14:53:58;6.20;;;4.40;;
17369;SDS011;8802;52.402;4.920;2023-06-24T14:56:25;5.07;;;4.30;;
17369;SDS011;8802;52.402;4.920;2023-06-24T14:58:51;6.32;;;4.50;;
17369;SDS011;8802;52.402;4.920;2023-06-24T15:01:18;5.60;;;4.50;;
17369;SDS011;8802;52.402;4.920;2023-06-24T15:03:45;5.72;;;4.22;;
17369;SDS011;8802;52.402;4.920;2023-06-24T15:06:12;5.28;;;4.78;;
17369;SDS011;8802;52.402;4.920;2023-06-24T15:08:39;5.07;;;4.53;;